sensor_id;sensor_type;location;lat;lon;timestamp;pressure;altitude;pressure_sealevel;temperature;humidity
31681;BME280;18281;51.364;9.566;2023-02-21T00:00:57;100268.25;;;5.54;100.00
31681;BME280;18281;51.364;9.566;2023-02-21T00:03:41;100274.13;;;5.61;100.00
31681;BME280;18281;51.364;9.566;2023-02-21T00:06:25;100270.91;;;5.53;100.00
31681;BME280;18281;51.364;9.566;2023-02-21T00:09:09;100274.38;;;5.53;100.00
31681;BME280;18281;51.364;9.566;2023-02-21T00:11:53;100263.28;;;5.75;100.00
31681;BME280;18281;51.364;9.566;2023-02-21T00:14:38;100264.44;;;5.66;100.00
31681;BME280;18281;51.364;9.566;2023-02-21T00:17:22;100269.00;;;5.58;100.00
31681;BME280;18281;51.364;9.566;2023-02-21T00:20:06;100272.47;;;5.59;100.00
31681;BME280;18281;51.364;9.566;2023-02-21T00:22:51;100261.41;;;5.52;100.00
31681;BME280;18281;51.364;9.566;2023-02-21T00:25:35;100265.66;;;5.54;100.00
31681;BME280;18281;51.364;9.566;2023-02-21T00:28:20;100261.41;;;5.52;100.00
31681;BME280;18281;51.364;9.566;2023-02-21T00:31:04;100265.84;;;5.48;100.00
31681;BME280;18281;51.364;9.566;2023-02-21T00:33:48;100264.78;;;5.54;100.00
31681;BME280;18281;51.364;9.566;2023-02-21T00:36:33;100262.38;;;5.48;100.00
31681;BME280;18281;51.364;9.566;2023-02-21T00:39:16;100271.59;;;5.58;100.00
31681;BME280;18281;51.364;9.566;2023-02-21T00:42:00;100269.25;;;5.50;100.00
31681;BME280;18281;51.364;9.566;2023-02-21T00:44:44;100267.31;;;5.57;100.00
31681;BME280;18281;51.364;9.566;2023-02-21T00:47:28;100264.22;;;5.44;100.00
31681;BME280;18281;51.364;9.566;2023-02-21T00:50:13;100256.31;;;5.47;100.00
31681;BME280;18281;51.364;9.566;2023-02-21T00:52:57;100245.94;;;5.46;100.00
31681;BME280;18281;51.364;9.566;2023-02-21T00:55:41;100242.44;;;5.47;100.00
31681;BME280;18281;51.364;9.566;2023-02-21T00:58:25;100244.72;;;5.57;100.00
31681;BME280;18281;51.364;9.566;2023-02-21T01:01:09;100236.91;;;5.57;100.00
31681;BME280;18281;51.364;9.566;2023-02-21T01:03:53;100244.81;;;5.54;100.00
31681;BME280;18281;51.364;9.566;2023-02-21T01:06:37;100241.41;;;5.52;100.00
31681;BME280;18281;51.364;9.566;2023-02-21T01:09:21;100245.00;;;5.48;100.00
31681;BME280;18281;51.364;9.566;2023-02-21T01:12:05;100238.94;;;5.48;100.00
31681;BME280;18281;51.364;9.566;2023-02-21T01:14:49;100233.78;;;5.46;100.00
31681;BME280;18281;51.364;9.566;2023-02-21T01:17:33;100237.47;;;5.39;100.00
31681;BME280;18281;51.364;9.566;2023-02-21T01:20:17;100244.50;;;5.37;100.00
31681;BME280;18281;51.364;9.566;2023-02-21T01:23:01;100241.69;;;5.43;100.00
31681;BME280;18281;51.364;9.566;2023-02-21T01:25:45;100246.53;;;5.55;100.00
31681;BME280;18281;51.364;9.566;2023-02-21T01:28:30;100243.50;;;5.41;100.00
31681;BME280;18281;51.364;9.566;2023-02-21T01:31:18;100242.50;;;5.45;100.00
31681;BME280;18281;51.364;9.566;2023-02-21T01:34:02;100252.97;;;5.44;100.00
31681;BME280;18281;51.364;9.566;2023-02-21T01:36:47;100248.22;;;5.27;100.00
31681;BME280;18281;51.364;9.566;2023-02-21T01:39:31;100250.81;;;5.27;100.00
31681;BME280;18281;51.364;9.566;2023-02-21T01:42:15;100255.16;;;5.28;100.00
31681;BME280;18281;51.364;9.566;2023-02-21T01:48:16;100242.28;;;5.51;100.00
31681;BME280;18281;51.364;9.566;2023-02-21T01:51:03;100249.22;;;5.52;100.00
31681;BME280;18281;51.364;9.566;2023-02-21T01:53:49;100254.63;;;5.46;100.00
31681;BME280;18281;51.364;9.566;2023-02-21T01:56:34;100251.50;;;5.33;100.00
31681;BME280;18281;51.364;9.566;2023-02-21T01:59:21;100240.78;;;5.44;100.00
31681;BME280;18281;51.364;9.566;2023-02-21T02:04:56;100247.34;;;5.28;100.00
31681;BME280;18281;51.364;9.566;2023-02-21T02:07:41;100240.41;;;5.27;100.00
31681;BME280;18281;51.364;9.566;2023-02-21T02:10:25;100241.09;;;5.33;100.00
31681;BME280;18281;51.364;9.566;2023-02-21T02:15:58;100232.38;;;5.36;100.00
31681;BME280;18281;51.364;9.566;2023-02-21T02:18:43;100226.25;;;5.37;100.00
31681;BME280;18281;51.364;9.566;2023-02-21T02:26:56;100228.88;;;5.37;100.00
31681;BME280;18281;51.364;9.566;2023-02-21T02:34:48;100230.84;;;5.27;100.00
31681;BME280;18281;51.364;9.566;2023-02-21T02:40:49;100222.84;;;5.35;100.00
31681;BME280;18281;51.364;9.566;2023-02-21T02:48:32;100209.78;;;5.36;100.00
31681;BME280;18281;51.364;9.566;2023-02-21T02:51:02;100203.44;;;5.45;100.00
31681;BME280;18281;51.364;9.566;2023-02-21T02:53:29;100221.00;;;5.38;100.00
31681;BME280;18281;51.364;9.566;2023-02-21T02:55:59;100219.63;;;5.55;100.00
31681;BME280;18281;51.364;9.566;2023-02-21T02:58:27;100219.50;;;5.58;100.00
31681;BME280;18281;51.364;9.566;2023-02-21T03:07:16;100223.38;;;5.46;100.00
31681;BME280;18281;51.364;9.566;2023-02-21T03:12:34;100228.81;;;5.38;100.00
31681;BME280;18281;51.364;9.566;2023-02-21T03:15:06;100235.75;;;5.38;100.00
31681;BME280;18281;51.364;9.566;2023-02-21T03:17:39;100238.53;;;5.32;100.00
31681;BME280;18281;51.364;9.566;2023-02-21T03:20:08;100242.19;;;5.26;100.00
31681;BME280;18281;51.364;9.566;2023-02-21T03:22:35;100236.81;;;5.31;100.00
31681;BME280;18281;51.364;9.566;2023-02-21T03:25:01;100243.00;;;5.27;100.00
31681;BME280;18281;51.364;9.566;2023-02-21T03:27:29;100237.66;;;5.31;100.00
31681;BME280;18281;51.364;9.566;2023-02-21T03:29:57;100241.88;;;5.37;100.00
31681;BME280;18281;51.364;9.566;2023-02-21T03:32:44;100240.41;;;5.27;100.00
31681;BME280;18281;51.364;9.566;2023-02-21T03:35:11;100242.06;;;5.29;100.00
31681;BME280;18281;51.364;9.566;2023-02-21T03:37:43;100238.13;;;5.46;100.00
31681;BME280;18281;51.364;9.566;2023-02-21T03:40:19;100239.63;;;5.54;100.00
31681;BME280;18281;51.364;9.566;2023-02-21T03:42:48;100232.44;;;5.33;100.00
31681;BME280;18281;51.364;9.566;2023-02-21T03:45:14;100238.41;;;5.36;100.00
31681;BME280;18281;51.364;9.566;2023-02-21T03:47:39;100240.47;;;5.25;100.00
31681;BME280;18281;51.364;9.566;2023-02-21T03:50:05;100238.75;;;5.24;100.00
31681;BME280;18281;51.364;9.566;2023-02-21T03:52:31;100231.50;;;5.34;100.00
31681;BME280;18281;51.364;9.566;2023-02-21T03:54:57;100226.31;;;5.34;100.00
31681;BME280;18281;51.364;9.566;2023-02-21T03:57:22;100231.56;;;5.32;100.00
31681;BME280;18281;51.364;9.566;2023-02-21T03:59:48;100233.28;;;5.33;100.00
31681;BME280;18281;51.364;9.566;2023-02-21T04:02:14;100235.81;;;5.36;100.00
31681;BME280;18281;51.364;9.566;2023-02-21T04:04:41;100233.19;;;5.36;100.00
31681;BME280;18281;51.364;9.566;2023-02-21T04:07:06;100237.47;;;5.39;100.00
31681;BME280;18281;51.364;9.566;2023-02-21T04:09:32;100243.66;;;5.35;100.00
31681;BME280;18281;51.364;9.566;2023-02-21T04:11:59;100250.00;;;5.24;100.00
31681;BME280;18281;51.364;9.566;2023-02-21T04:14:24;100251.25;;;5.43;100.00
31681;BME280;18281;51.364;9.566;2023-02-21T04:16:50;100252.31;;;5.37;100.00
31681;BME280;18281;51.364;9.566;2023-02-21T04:19:16;100262.72;;;5.35;100.00
31681;BME280;18281;51.364;9.566;2023-02-21T04:21:41;100261.84;;;5.36;100.00
31681;BME280;18281;51.364;9.566;2023-02-21T04:24:07;100260.41;;;5.26;100.00
31681;BME280;18281;51.364;9.566;2023-02-21T04:26:32;100255.41;;;5.18;100.00
31681;BME280;18281;51.364;9.566;2023-02-21T04:29:00;100251.72;;;5.26;100.00
31681;BME280;18281;51.364;9.566;2023-02-21T04:31:25;100254.16;;;5.32;100.00
31681;BME280;18281;51.364;9.566;2023-02-21T04:33:51;100255.09;;;5.29;100.00
31681;BME280;18281;51.364;9.566;2023-02-21T04:36:17;100254.22;;;5.29;100.00
31681;BME280;18281;51.364;9.566;2023-02-21T04:38:42;100256.03;;;5.27;100.00
31681;BME280;18281;51.364;9.566;2023-02-21T04:41:08;100247.56;;;5.20;100.00
31681;BME280;18281;51.364;9.566;2023-02-21T04:43:33;100252.59;;;5.24;100.00
31681;BME280;18281;51.364;9.566;2023-02-21T04:45:59;100244.81;;;5.24;100.00
31681;BME280;18281;51.364;9.566;2023-02-21T04:48:25;100243.00;;;5.27;100.00
31681;BME280;18281;51.364;9.566;2023-02-21T04:50:50;100236.31;;;5.19;100.00
31681;BME280;18281;51.364;9.566;2023-02-21T04:53:16;100231.94;;;5.20;100.00
31681;BME280;18281;51.364;9.566;2023-02-21T04:55:42;100218.06;;;5.19;100.00
31681;BME280;18281;51.364;9.566;2023-02-21T04:58:07;100224.03;;;5.23;100.00
31681;BME280;18281;51.364;9.566;2023-02-21T05:00:33;100216.25;;;5.21;100.00
31681;BME280;18281;51.364;9.566;2023-02-21T05:02:58;100215.44;;;5.21;100.00
31681;BME280;18281;51.364;9.566;2023-02-21T05:05:25;100217.97;;;5.22;100.00
31681;BME280;18281;51.364;9.566;2023-02-21T05:07:50;100223.09;;;5.26;100.00
31681;BME280;18281;51.364;9.566;2023-02-21T05:10:16;100228.56;;;5.16;100.00
31681;BME280;18281;51.364;9.566;2023-02-21T05:12:42;100220.63;;;5.21;100.00
31681;BME280;18281;51.364;9.566;2023-02-21T05:15:12;100218.81;;;5.23;100.00
31681;BME280;18281;51.364;9.566;2023-02-21T05:17:38;100219.91;;;5.16;100.00
31681;BME280;18281;51.364;9.566;2023-02-21T05:20:04;100218.06;;;5.19;100.00
31681;BME280;18281;51.364;9.566;2023-02-21T05:22:31;100214.59;;;5.19;100.00
31681;BME280;18281;51.364;9.566;2023-02-21T05:24:58;100221.84;;;5.09;100.00
31681;BME280;18281;51.364;9.566;2023-02-21T05:27:24;100214.00;;;5.11;100.00
31681;BME280;18281;51.364;9.566;2023-02-21T05:29:51;100216.53;;;5.12;100.00
31681;BME280;18281;51.364;9.566;2023-02-21T05:32:19;100215.47;;;5.19;100.00
31681;BME280;18281;51.364;9.566;2023-02-21T05:34:45;100209.56;;;5.14;100.00
31681;BME280;18281;51.364;9.566;2023-02-21T05:37:18;100209.66;;;5.10;100.00
31681;BME280;18281;51.364;9.566;2023-02-21T05:39:46;100210.38;;;5.15;100.00
31681;BME280;18281;51.364;9.566;2023-02-21T05:42:11;100205.97;;;5.18;100.00
31681;BME280;18281;51.364;9.566;2023-02-21T05:44:37;100206.78;;;5.19;100.00
31681;BME280;18281;51.364;9.566;2023-02-21T05:47:02;100206.13;;;5.12;100.00
31681;BME280;18281;51.364;9.566;2023-02-21T05:49:28;100206.03;;;5.15;100.00
31681;BME280;18281;51.364;9.566;2023-02-21T05:51:53;100203.41;;;5.17;100.00
31681;BME280;18281;51.364;9.566;2023-02-21T05:54:20;100203.44;;;5.15;100.00
31681;BME280;18281;51.364;9.566;2023-02-21T05:56:48;100208.00;;;5.07;100.00
31681;BME280;18281;51.364;9.566;2023-02-21T05:59:15;100207.75;;;5.16;100.00
31681;BME280;18281;51.364;9.566;2023-02-21T06:01:43;100205.06;;;5.19;100.00
31681;BME280;18281;51.364;9.566;2023-02-21T06:04:08;100218.41;;;5.07;100.00
31681;BME280;18281;51.364;9.566;2023-02-21T06:06:34;100215.81;;;5.07;100.00
31681;BME280;18281;51.364;9.566;2023-02-21T06:08:59;100216.50;;;5.14;100.00
31681;BME280;18281;51.364;9.566;2023-02-21T06:11:27;100205.84;;;5.21;100.00
31681;BME280;18281;51.364;9.566;2023-02-21T06:13:56;100213.16;;;5.09;100.00
31681;BME280;18281;51.364;9.566;2023-02-21T06:16:21;100206.13;;;5.12;100.00
31681;BME280;18281;51.364;9.566;2023-02-21T06:18:52;100213.94;;;5.12;100.00
31681;BME280;18281;51.364;9.566;2023-02-21T06:21:18;100209.63;;;5.11;100.00
31681;BME280;18281;51.364;9.566;2023-02-21T06:23:44;100218.25;;;5.13;100.00
31681;BME280;18281;51.364;9.566;2023-02-21T06:26:09;100214.66;;;5.17;100.00
31681;BME280;18281;51.364;9.566;2023-02-21T06:28:35;100217.97;;;5.22;100.00
31681;BME280;18281;51.364;9.566;2023-02-21T06:31:03;100220.00;;;5.13;100.00
31681;BME280;18281;51.364;9.566;2023-02-21T06:33:28;100212.63;;;5.27;100.00
31681;BME280;18281;51.364;9.566;2023-02-21T06:35:54;100221.38;;;5.24;100.00
31681;BME280;18281;51.364;9.566;2023-02-21T06:38:19;100212.81;;;5.21;100.00
31681;BME280;18281;51.364;9.566;2023-02-21T06:40:45;100224.22;;;5.17;100.00
31681;BME280;18281;51.364;9.566;2023-02-21T06:43:10;100218.09;;;5.18;100.00
31681;BME280;18281;51.364;9.566;2023-02-21T06:45:35;100214.56;;;5.20;100.00
31681;BME280;18281;51.364;9.566;2023-02-21T06:48:01;100217.75;;;5.30;100.00
31681;BME280;18281;51.364;9.566;2023-02-21T06:50:26;100216.88;;;5.60;100.00
31681;BME280;18281;51.364;9.566;2023-02-21T06:52:55;100226.97;;;5.97;100.00
31681;BME280;18281;51.364;9.566;2023-02-21T06:55:23;100212.59;;;5.85;100.00
31681;BME280;18281;51.364;9.566;2023-02-21T06:57:48;100222.69;;;5.68;100.00
31681;BME280;18281;51.364;9.566;2023-02-21T07:00:15;100226.53;;;5.56;100.00
31681;BME280;18281;51.364;9.566;2023-02-21T07:02:41;100218.97;;;5.48;100.00
31681;BME280;18281;51.364;9.566;2023-02-21T07:05:07;100216.69;;;5.37;100.00
31681;BME280;18281;51.364;9.566;2023-02-21T07:07:33;100219.25;;;5.39;100.00
31681;BME280;18281;51.364;9.566;2023-02-21T07:09:58;100229.56;;;5.42;100.00
31681;BME280;18281;51.364;9.566;2023-02-21T07:12:24;100238.53;;;5.32;100.00
31681;BME280;18281;51.364;9.566;2023-02-21T07:14:49;100240.38;;;5.28;100.00
31681;BME280;18281;51.364;9.566;2023-02-21T07:17:15;100236.72;;;5.34;100.00
31681;BME280;18281;51.364;9.566;2023-02-21T07:19:40;100235.09;;;5.30;100.00
31681;BME280;18281;51.364;9.566;2023-02-21T07:22:06;100242.13;;;5.28;100.00
31681;BME280;18281;51.364;9.566;2023-02-21T07:24:32;100236.88;;;5.29;100.00
31681;BME280;18281;51.364;9.566;2023-02-21T07:26:58;100241.19;;;5.29;100.00
31681;BME280;18281;51.364;9.566;2023-02-21T07:29:23;100245.66;;;5.25;100.00
31681;BME280;18281;51.364;9.566;2023-02-21T07:31:49;100243.28;;;5.17;100.00
31681;BME280;18281;51.364;9.566;2023-02-21T07:34:14;100243.00;;;5.27;100.00
31681;BME280;18281;51.364;9.566;2023-02-21T07:36:40;100248.13;;;5.30;100.00
31681;BME280;18281;51.364;9.566;2023-02-21T07:39:06;100241.78;;;5.40;100.00
31681;BME280;18281;51.364;9.566;2023-02-21T07:41:31;100240.91;;;5.41;100.00
31681;BME280;18281;51.364;9.566;2023-02-21T07:43:56;100233.41;;;5.29;100.00
31681;BME280;18281;51.364;9.566;2023-02-21T07:46:27;100243.00;;;5.27;100.00
31681;BME280;18281;51.364;9.566;2023-02-21T07:48:53;100255.16;;;5.28;100.00
31681;BME280;18281;51.364;9.566;2023-02-21T07:51:19;100249.00;;;5.29;100.00
31681;BME280;18281;51.364;9.566;2023-02-21T07:53:44;100254.22;;;5.29;100.00
31681;BME280;18281;51.364;9.566;2023-02-21T07:56:09;100252.50;;;5.29;100.00
31681;BME280;18281;51.364;9.566;2023-02-21T07:58:35;100247.34;;;5.28;100.00
31681;BME280;18281;51.364;9.566;2023-02-21T08:01:04;100251.66;;;5.27;100.00
31681;BME280;18281;51.364;9.566;2023-02-21T08:03:30;100252.53;;;5.28;100.00
31681;BME280;18281;51.364;9.566;2023-02-21T08:05:57;100259.44;;;5.29;100.00
31681;BME280;18281;51.364;9.566;2023-02-21T08:08:22;100264.56;;;5.32;100.00
31681;BME280;18281;51.364;9.566;2023-02-21T08:10:47;100269.78;;;5.32;100.00
31681;BME280;18281;51.364;9.566;2023-02-21T08:13:13;100268.09;;;5.29;100.00
31681;BME280;18281;51.364;9.566;2023-02-21T08:15:39;100270.63;;;5.32;100.00
31681;BME280;18281;51.364;9.566;2023-02-21T08:18:04;100269.78;;;5.32;100.00
31681;BME280;18281;51.364;9.566;2023-02-21T08:20:30;100271.50;;;5.31;100.00
31681;BME280;18281;51.364;9.566;2023-02-21T08:22:55;100269.81;;;5.30;100.00
31681;BME280;18281;51.364;9.566;2023-02-21T08:25:21;100276.63;;;5.34;100.00
31681;BME280;18281;51.364;9.566;2023-02-21T08:27:46;100271.47;;;5.33;100.00
31681;BME280;18281;51.364;9.566;2023-02-21T08:30:18;100276.63;;;5.36;100.00
31681;BME280;18281;51.364;9.566;2023-02-21T08:32:44;100277.41;;;5.39;100.00
31681;BME280;18281;51.364;9.566;2023-02-21T08:35:13;100273.16;;;5.34;100.00
31681;BME280;18281;51.364;9.566;2023-02-21T08:37:43;100273.03;;;5.40;100.00
31681;BME280;18281;51.364;9.566;2023-02-21T08:40:10;100276.44;;;5.99;100.00
31681;BME280;18281;51.364;9.566;2023-02-21T08:42:35;100287.38;;;6.62;100.00
31681;BME280;18281;51.364;9.566;2023-02-21T08:45:01;100284.81;;;6.86;100.00
31681;BME280;18281;51.364;9.566;2023-02-21T08:47:26;100280.97;;;6.71;100.00
31681;BME280;18281;51.364;9.566;2023-02-21T08:49:52;100282.47;;;6.53;100.00
31681;BME280;18281;51.364;9.566;2023-02-21T08:52:18;100270.63;;;6.17;100.00
31681;BME280;18281;51.364;9.566;2023-02-21T08:54:46;100274.53;;;6.04;100.00
31681;BME280;18281;51.364;9.566;2023-02-21T08:57:11;100268.09;;;5.87;100.00
31681;BME280;18281;51.364;9.566;2023-02-21T08:59:41;100279.69;;;5.79;100.00
31681;BME280;18281;51.364;9.566;2023-02-21T09:02:17;100276.25;;;5.77;100.00
31681;BME280;18281;51.364;9.566;2023-02-21T09:04:43;100278.72;;;5.81;100.00
31681;BME280;18281;51.364;9.566;2023-02-21T09:07:11;100287.44;;;5.80;100.00
31681;BME280;18281;51.364;9.566;2023-02-21T09:09:37;100284.41;;;5.66;100.00
31681;BME280;18281;51.364;9.566;2023-02-21T09:12:03;100288.78;;;5.65;100.00
31681;BME280;18281;51.364;9.566;2023-02-21T09:14:32;100283.41;;;5.70;100.00
31681;BME280;18281;51.364;9.566;2023-02-21T09:16:57;100288.00;;;5.62;100.00
31681;BME280;18281;51.364;9.566;2023-02-21T09:19:23;100285.06;;;5.72;100.00
31681;BME280;18281;51.364;9.566;2023-02-21T09:21:48;100293.81;;;5.70;100.00
31681;BME280;18281;51.364;9.566;2023-02-21T09:24:19;100287.91;;;5.65;100.00
31681;BME280;18281;51.364;9.566;2023-02-21T09:26:49;100291.22;;;5.70;100.00
31681;BME280;18281;51.364;9.566;2023-02-21T09:29:19;100291.22;;;5.70;100.00
31681;BME280;18281;51.364;9.566;2023-02-21T09:31:44;100287.94;;;5.63;100.00
31681;BME280;18281;51.364;9.566;2023-02-21T09:34:10;100287.88;;;5.66;100.00
31681;BME280;18281;51.364;9.566;2023-02-21T09:36:35;100287.72;;;5.71;100.00
31681;BME280;18281;51.364;9.566;2023-02-21T09:39:00;100283.41;;;5.70;100.00
31681;BME280;18281;51.364;9.566;2023-02-21T09:41:30;100281.56;;;5.73;100.00
31681;BME280;18281;51.364;9.566;2023-02-21T09:43:56;100291.22;;;5.70;100.00
31681;BME280;18281;51.364;9.566;2023-02-21T09:46:35;100284.28;;;5.70;100.00
31681;BME280;18281;51.364;9.566;2023-02-21T09:49:05;100286.88;;;5.70;100.00
31681;BME280;18281;51.364;9.566;2023-02-21T09:51:32;100282.47;;;5.72;100.00
31681;BME280;18281;51.364;9.566;2023-02-21T09:54:02;100292.16;;;5.69;100.00
31681;BME280;18281;51.364;9.566;2023-02-21T09:56:31;100297.19;;;5.73;100.00
31681;BME280;18281;51.364;9.566;2023-02-21T09:58:58;100299.75;;;5.75;100.00
31681;BME280;18281;51.364;9.566;2023-02-21T10:07:03;100298.91;;;5.75;100.00
31681;BME280;18281;51.364;9.566;2023-02-21T10:09:44;100302.47;;;5.72;100.00
31681;BME280;18281;51.364;9.566;2023-02-21T10:17:37;100310.44;;;5.66;100.00
31681;BME280;18281;51.364;9.566;2023-02-21T10:20:25;100307.66;;;5.72;100.00
31681;BME280;18281;51.364;9.566;2023-02-21T10:22:54;100298.25;;;5.68;100.00
31681;BME280;18281;51.364;9.566;2023-02-21T10:25:29;100307.13;;;5.61;100.00
31681;BME280;18281;51.364;9.566;2023-02-21T10:27:56;100309.47;;;5.70;100.00
31681;BME280;18281;51.364;9.566;2023-02-21T10:32:56;100309.47;;;5.70;100.00
31681;BME280;18281;51.364;9.566;2023-02-21T10:35:21;100312.06;;;5.70;100.00
31681;BME280;18281;51.364;9.566;2023-02-21T10:37:50;100303.25;;;5.74;100.00
31681;BME280;18281;51.364;9.566;2023-02-21T10:40:35;100319.03;;;5.69;100.00
31681;BME280;18281;51.364;9.566;2023-02-21T10:46:19;100316.00;;;5.83;100.00
31681;BME280;18281;51.364;9.566;2023-02-21T10:48:47;100304.78;;;5.81;100.00
31681;BME280;18281;51.364;9.566;2023-02-21T10:51:17;100308.09;;;5.86;100.00
31681;BME280;18281;51.364;9.566;2023-02-21T10:53:52;100306.22;;;5.90;100.00
31681;BME280;18281;51.364;9.566;2023-02-21T10:56:21;100299.00;;;6.00;100.00
31681;BME280;18281;51.364;9.566;2023-02-21T10:59:26;100291.00;;;6.04;100.00
31681;BME280;18281;51.364;9.566;2023-02-21T11:01:53;100291.19;;;6.00;100.00
31681;BME280;18281;51.364;9.566;2023-02-21T11:06:47;100295.81;;;6.17;100.00
31681;BME280;18281;51.364;9.566;2023-02-21T11:15:02;100299.44;;;6.13;100.00
31681;BME280;18281;51.364;9.566;2023-02-21T11:17:30;100296.59;;;6.20;100.00
31681;BME280;18281;51.364;9.566;2023-02-21T11:20:17;100297.53;;;6.18;100.00
31681;BME280;18281;51.364;9.566;2023-02-21T11:22:48;100293.16;;;6.18;100.00
31681;BME280;18281;51.364;9.566;2023-02-21T11:25:30;100294.03;;;6.19;100.00
31681;BME280;18281;51.364;9.566;2023-02-21T11:28:02;100298.59;;;6.12;100.00
31681;BME280;18281;51.364;9.566;2023-02-21T11:30:30;100290.41;;;6.23;100.00
31681;BME280;18281;51.364;9.566;2023-02-21T11:32:58;100293.44;;;6.11;100.00
31681;BME280;18281;51.364;9.566;2023-02-21T11:35:28;100290.06;;;6.07;100.00
31681;BME280;18281;51.364;9.566;2023-02-21T11:38:00;100283.06;;;6.09;100.00
31681;BME280;18281;51.364;9.566;2023-02-21T11:43:20;100276.56;;;6.21;100.00
31681;BME280;18281;51.364;9.566;2023-02-21T11:48:24;100273.88;;;6.24;100.00
31681;BME280;18281;51.364;9.566;2023-02-21T11:50:56;100263.34;;;6.27;100.00
31681;BME280;18281;51.364;9.566;2023-02-21T11:53:26;100263.81;;;6.38;100.00
31681;BME280;18281;51.364;9.566;2023-02-21T11:58:48;100256.44;;;6.51;100.00
31681;BME280;18281;51.364;9.566;2023-02-21T12:01:28;100255.00;;;6.43;100.00
31681;BME280;18281;51.364;9.566;2023-02-21T12:04:18;100251.47;;;6.69;100.00
31681;BME280;18281;51.364;9.566;2023-02-21T12:06:59;100261.13;;;6.90;100.00
31681;BME280;18281;51.364;9.566;2023-02-21T12:23:21;100244.34;;;6.74;100.00
31681;BME280;18281;51.364;9.566;2023-02-21T12:28:57;100233.91;;;6.74;100.00
31681;BME280;18281;51.364;9.566;2023-02-21T12:31:29;100234.75;;;6.74;100.00
31681;BME280;18281;51.364;9.566;2023-02-21T12:34:21;100225.88;;;6.79;100.00
31681;BME280;18281;51.364;9.566;2023-02-21T12:39:31;100225.88;;;6.80;100.00
31681;BME280;18281;51.364;9.566;2023-02-21T12:42:24;100228.47;;;6.80;100.00
31681;BME280;18281;51.364;9.566;2023-02-21T12:48:31;100227.03;;;6.97;100.00
31681;BME280;18281;51.364;9.566;2023-02-21T12:51:00;100216.75;;;6.90;100.00
31681;BME280;18281;51.364;9.566;2023-02-21T12:56:08;100213.97;;;6.97;100.00
31681;BME280;18281;51.364;9.566;2023-02-21T12:58:42;100215.69;;;6.98;100.00
31681;BME280;18281;51.364;9.566;2023-02-21T13:01:19;100210.34;;;7.01;100.00
31681;BME280;18281;51.364;9.566;2023-02-21T13:03:57;100201.47;;;7.05;100.00
31681;BME280;18281;51.364;9.566;2023-02-21T13:11:26;100203.19;;;7.06;100.00
31681;BME280;18281;51.364;9.566;2023-02-21T13:13:55;100201.59;;;7.02;100.00
31681;BME280;18281;51.364;9.566;2023-02-21T13:16:20;100198.25;;;6.98;100.00
31681;BME280;18281;51.364;9.566;2023-02-21T13:18:51;100202.56;;;6.99;100.00
31681;BME280;18281;51.364;9.566;2023-02-21T13:21:42;100199.72;;;7.05;100.00
31681;BME280;18281;51.364;9.566;2023-02-21T13:24:26;100191.84;;;7.07;100.00
31681;BME280;18281;51.364;9.566;2023-02-21T13:29:35;100179.56;;;7.09;100.00
31681;BME280;18281;51.364;9.566;2023-02-21T13:32:10;100182.19;;;7.09;100.00
31681;BME280;18281;51.364;9.566;2023-02-21T13:34:48;100173.31;;;7.13;100.00
31681;BME280;18281;51.364;9.566;2023-02-21T13:37:20;100171.50;;;7.15;100.00
31681;BME280;18281;51.364;9.566;2023-02-21T13:39:52;100168.72;;;7.20;100.00
31681;BME280;18281;51.364;9.566;2023-02-21T13:42:22;100163.53;;;7.18;100.00
31681;BME280;18281;51.364;9.566;2023-02-21T13:44:52;100166.22;;;7.17;100.00
31681;BME280;18281;51.364;9.566;2023-02-21T13:47:20;100167.72;;;7.22;100.00
31681;BME280;18281;51.364;9.566;2023-02-21T13:49:54;100157.16;;;7.26;100.00
31681;BME280;18281;51.364;9.566;2023-02-21T13:55:08;100156.25;;;7.27;100.00
31681;BME280;18281;51.364;9.566;2023-02-21T13:57:35;100151.28;;;7.20;100.00
31681;BME280;18281;51.364;9.566;2023-02-21T14:11:15;100142.53;;;7.21;100.00
31681;BME280;18281;51.364;9.566;2023-02-21T14:13:49;100143.47;;;7.20;100.00
31681;BME280;18281;51.364;9.566;2023-02-21T14:32:24;100145.00;;;8.31;100.00
31681;BME280;18281;51.364;9.566;2023-02-21T14:34:53;100145.84;;;8.52;100.00
31681;BME280;18281;51.364;9.566;2023-02-21T14:43:05;100122.50;;;8.85;100.00
31681;BME280;18281;51.364;9.566;2023-02-21T14:56:34;100112.16;;;9.01;100.00
31681;BME280;18281;51.364;9.566;2023-02-21T15:04:41;100123.56;;;8.81;100.00
31681;BME280;18281;51.364;9.566;2023-02-21T15:07:17;100129.16;;;8.73;100.00
31681;BME280;18281;51.364;9.566;2023-02-21T15:10:13;100123.22;;;8.70;100.00
31681;BME280;18281;51.364;9.566;2023-02-21T15:12:44;100117.00;;;8.53;100.00
31681;BME280;18281;51.364;9.566;2023-02-21T15:15:25;100123.22;;;8.51;100.00
31681;BME280;18281;51.364;9.566;2023-02-21T15:18:12;100120.81;;;8.46;100.00
31681;BME280;18281;51.364;9.566;2023-02-21T15:23:31;100122.25;;;8.33;100.00
31681;BME280;18281;51.364;9.566;2023-02-21T15:28:45;100130.50;;;8.23;100.00
31681;BME280;18281;51.364;9.566;2023-02-21T15:31:11;100131.53;;;8.19;100.00
31681;BME280;18281;51.364;9.566;2023-02-21T15:33:42;100132.47;;;8.18;100.00
31681;BME280;18281;51.364;9.566;2023-02-21T15:38:41;100128.31;;;8.13;100.00
31681;BME280;18281;51.364;9.566;2023-02-21T15:41:28;100135.41;;;8.11;100.00
31681;BME280;18281;51.364;9.566;2023-02-21T15:44:11;100125.84;;;8.10;100.00
31681;BME280;18281;51.364;9.566;2023-02-21T15:46:47;100130.41;;;8.04;100.00
31681;BME280;18281;51.364;9.566;2023-02-21T15:49:28;100139.78;;;8.10;100.00
31681;BME280;18281;51.364;9.566;2023-02-21T15:51:55;100132.94;;;8.07;100.00
31681;BME280;18281;51.364;9.566;2023-02-21T15:54:28;100130.34;;;8.06;100.00
31681;BME280;18281;51.364;9.566;2023-02-21T15:59:33;100133.19;;;8.01;100.00